createdAt,value
2019-05-09T00:01:17.290Z,1.63
2019-05-09T00:03:47.120Z,1.30
2019-05-09T00:06:16.838Z,1.10
2019-05-09T00:08:46.517Z,1.20
2019-05-09T00:11:16.347Z,1.47
2019-05-09T00:13:46.087Z,1.22
2019-05-09T00:16:15.836Z,1.20
2019-05-09T00:18:45.514Z,1.10
2019-05-09T00:21:26.419Z,1.13
2019-05-09T00:23:56.138Z,1.20
2019-05-09T00:26:25.767Z,1.00
2019-05-09T00:28:59.853Z,1.20
2019-05-09T00:31:38.948Z,1.30
2019-05-09T00:34:10.848Z,1.37
2019-05-09T00:36:40.518Z,1.30
2019-05-09T00:39:10.207Z,1.30
2019-05-09T00:41:39.870Z,1.50
2019-05-09T00:44:16.361Z,1.70
2019-05-09T00:46:59.167Z,1.40
2019-05-09T00:49:29.002Z,1.33
2019-05-09T00:51:58.754Z,1.50
2019-05-09T00:54:28.493Z,1.67
2019-05-09T00:56:58.309Z,1.50
2019-05-09T00:59:28.069Z,1.50
2019-05-09T01:01:57.837Z,1.57
2019-05-09T01:04:27.623Z,1.80
2019-05-09T01:06:57.271Z,1.77
2019-05-09T01:09:26.902Z,2.08
2019-05-09T01:11:56.913Z,1.73
2019-05-09T01:14:26.798Z,1.47
2019-05-09T01:16:56.579Z,1.73
2019-05-09T01:19:26.302Z,1.43
2019-05-09T01:21:56.096Z,1.60
2019-05-09T01:24:25.714Z,1.87
2019-05-09T01:26:55.367Z,1.70
2019-05-09T01:29:25.026Z,1.60
2019-05-09T01:31:56.450Z,2.10
2019-05-09T01:34:29.193Z,1.97
2019-05-09T01:37:09.372Z,2.08
2019-05-09T01:39:39.170Z,2.30
2019-05-09T01:42:08.867Z,2.03
2019-05-09T01:44:38.619Z,1.90
2019-05-09T01:47:08.418Z,1.93
2019-05-09T01:49:38.198Z,1.70
2019-05-09T01:52:07.859Z,2.10
2019-05-09T01:54:39.214Z,1.52
2019-05-09T01:57:08.939Z,2.15
2019-05-09T01:59:38.582Z,1.77
2019-05-09T02:02:09.169Z,1.63
2019-05-09T02:04:39.061Z,1.83
2019-05-09T02:07:09.054Z,1.60
2019-05-09T02:09:38.801Z,1.72
2019-05-09T02:12:08.632Z,1.87
2019-05-09T02:14:51.040Z,1.83
2019-05-09T02:17:29.648Z,1.60
2019-05-09T02:19:59.272Z,1.83
2019-05-09T02:22:35.163Z,1.30
2019-05-09T02:25:07.565Z,1.30
2019-05-09T02:27:37.818Z,1.67
2019-05-09T02:30:07.764Z,1.30
2019-05-09T02:32:38.465Z,1.22
2019-05-09T02:35:08.912Z,1.47
2019-05-09T02:37:39.251Z,1.43
2019-05-09T02:40:10.102Z,1.53
2019-05-09T02:42:41.253Z,0.80
2019-05-09T02:45:11.211Z,1.30
2019-05-09T02:47:40.991Z,1.27
2019-05-09T02:50:11.209Z,1.63
2019-05-09T02:52:40.932Z,1.37
2019-05-09T02:55:11.774Z,1.30
2019-05-09T02:57:41.526Z,1.43
2019-05-09T03:00:24.901Z,1.50
2019-05-09T03:03:13.564Z,1.67
2019-05-09T03:05:43.205Z,1.00
2019-05-09T03:08:12.942Z,1.65
2019-05-09T03:10:42.693Z,1.60
2019-05-09T03:13:12.865Z,1.20
2019-05-09T03:15:43.232Z,1.60
2019-05-09T03:18:13.200Z,1.30
2019-05-09T03:21:01.879Z,1.47
2019-05-09T03:23:31.510Z,1.60
2019-05-09T03:26:01.222Z,1.50
2019-05-09T03:28:40.353Z,1.70
2019-05-09T03:31:10.671Z,1.40
2019-05-09T03:33:40.982Z,1.07
2019-05-09T03:36:11.686Z,1.60
2019-05-09T03:38:41.483Z,1.63
2019-05-09T03:41:11.284Z,1.30
2019-05-09T03:43:41.974Z,1.23
2019-05-09T03:46:21.459Z,1.47
2019-05-09T03:48:53.721Z,1.55
2019-05-09T03:51:23.448Z,1.40
2019-05-09T03:53:53.189Z,1.73
2019-05-09T03:56:27.468Z,1.40
2019-05-09T03:58:57.866Z,1.47
2019-05-09T04:01:28.601Z,1.60
2019-05-09T04:03:58.560Z,1.30
2019-05-09T04:06:28.386Z,1.57
2019-05-09T04:08:58.675Z,1.23
2019-05-09T04:11:28.412Z,1.60
2019-05-09T04:14:02.610Z,1.60
2019-05-09T04:16:32.381Z,1.50
2019-05-09T04:19:02.189Z,1.90
2019-05-09T04:21:31.827Z,2.02
2019-05-09T04:24:01.524Z,1.60
2019-05-09T04:26:40.066Z,2.20
2019-05-09T04:29:09.714Z,1.50
2019-05-09T04:31:39.406Z,1.70
2019-05-09T04:34:09.944Z,1.90
2019-05-09T04:36:40.717Z,1.97
2019-05-09T04:39:12.640Z,2.20
2019-05-09T04:41:42.988Z,1.60
2019-05-09T04:44:20.866Z,2.20
2019-05-09T04:46:48.962Z,2.10
2019-05-09T04:49:19.589Z,2.17
2019-05-09T04:51:49.350Z,2.10
2019-05-09T04:54:20.058Z,2.57
2019-05-09T04:56:49.819Z,2.00
2019-05-09T04:59:19.587Z,2.10
2019-05-09T05:02:18.283Z,1.93
2019-05-09T05:04:49.038Z,2.53
2019-05-09T05:07:18.803Z,2.10
2019-05-09T05:09:48.574Z,2.00
2019-05-09T05:12:18.869Z,2.37
2019-05-09T05:14:48.700Z,2.20
2019-05-09T05:17:18.486Z,2.37
2019-05-09T05:19:48.912Z,2.30
2019-05-09T05:22:30.924Z,2.00
2019-05-09T05:25:02.684Z,2.03
2019-05-09T05:27:32.403Z,2.02
2019-05-09T05:30:03.197Z,2.47
2019-05-09T05:32:48.939Z,2.10
2019-05-09T05:35:44.693Z,2.17
2019-05-09T05:38:14.372Z,1.90
2019-05-09T05:40:46.411Z,2.22
2019-05-09T05:43:17.401Z,2.20
2019-05-09T05:45:53.771Z,1.83
2019-05-09T05:48:27.955Z,2.17
2019-05-09T05:51:01.781Z,1.90
2019-05-09T05:53:31.561Z,2.40
2019-05-09T05:56:01.319Z,2.27
2019-05-09T05:58:31.078Z,1.90
2019-05-09T06:01:04.142Z,1.90
2019-05-09T06:03:32.133Z,1.87
2019-05-09T06:06:01.798Z,2.33
2019-05-09T06:08:31.536Z,1.63
2019-05-09T06:11:01.506Z,1.80
2019-05-09T06:13:31.636Z,1.80
2019-05-09T06:16:01.511Z,1.90
2019-05-09T06:18:31.246Z,1.77
2019-05-09T06:21:01.279Z,2.00
2019-05-09T06:23:31.087Z,1.80
2019-05-09T06:26:00.921Z,1.50
2019-05-09T06:28:31.900Z,2.13
2019-05-09T06:31:02.243Z,1.80
2019-05-09T06:33:32.303Z,1.62
2019-05-09T06:36:01.944Z,1.67
2019-05-09T06:38:31.804Z,1.60
2019-05-09T06:41:01.729Z,2.40
2019-05-09T06:43:33.970Z,1.70
2019-05-09T06:46:31.672Z,2.20
2019-05-09T06:49:21.359Z,1.60
2019-05-09T06:51:38.717Z,1.76
2019-05-09T06:54:08.559Z,1.70
2019-05-09T06:56:38.974Z,1.70
2019-05-09T06:59:08.768Z,1.70
2019-05-09T07:01:48.571Z,1.57
2019-05-09T07:04:52.569Z,1.87
2019-05-09T07:07:45.301Z,1.50
2019-05-09T07:10:15.072Z,2.30
2019-05-09T07:12:44.835Z,1.60
2019-05-09T07:15:14.487Z,1.60
2019-05-09T07:17:44.197Z,1.40
2019-05-09T07:20:13.905Z,1.43
2019-05-09T07:22:48.104Z,1.90
2019-05-09T07:25:49.200Z,1.40
2019-05-09T07:28:19.119Z,1.45
2019-05-09T07:30:57.210Z,1.20
2019-05-09T07:33:38.360Z,1.40
2019-05-09T07:36:08.562Z,1.47
2019-05-09T07:38:38.570Z,1.50
2019-05-09T07:41:09.012Z,1.50
2019-05-09T07:43:38.816Z,1.30
2019-05-09T07:46:29.074Z,1.07
2019-05-09T07:48:59.541Z,1.50
2019-05-09T07:51:29.298Z,1.77
2019-05-09T07:53:59.215Z,1.20
2019-05-09T07:56:28.958Z,1.07
2019-05-09T07:58:59.949Z,1.40
2019-05-09T08:01:30.060Z,1.00
2019-05-09T08:04:00.654Z,0.90
2019-05-09T08:06:30.511Z,1.20
2019-05-09T08:09:00.207Z,1.33
2019-05-09T08:11:32.259Z,1.42
2019-05-09T08:14:01.371Z,1.20
2019-05-09T08:16:31.068Z,1.25
2019-05-09T08:19:00.700Z,1.03
2019-05-09T08:21:30.475Z,0.97
2019-05-09T08:24:00.235Z,1.50
2019-05-09T08:26:30.287Z,1.10
2019-05-09T08:29:00.318Z,1.20
2019-05-09T08:31:29.911Z,1.10
2019-05-09T08:33:59.709Z,1.10
2019-05-09T08:36:29.412Z,0.90
2019-05-09T08:38:59.321Z,0.80
2019-05-09T08:41:29.436Z,1.20
2019-05-09T08:44:00.412Z,0.97
2019-05-09T08:46:30.287Z,1.32
2019-05-09T08:49:00.011Z,1.20
2019-05-09T08:51:52.104Z,1.35
2019-05-09T08:54:30.096Z,1.00
2019-05-09T08:56:59.864Z,1.02
2019-05-09T08:59:29.588Z,1.16
2019-05-09T09:02:12.421Z,1.27
2019-05-09T09:04:31.059Z,1.47
2019-05-09T09:07:00.745Z,1.27
2019-05-09T09:09:31.530Z,1.10
2019-05-09T09:12:01.300Z,1.80
2019-05-09T09:14:30.971Z,1.40
2019-05-09T09:17:00.616Z,1.40
2019-05-09T09:19:30.303Z,1.20
2019-05-09T09:22:00.726Z,1.35
2019-05-09T09:24:30.446Z,1.10
2019-05-09T09:27:00.233Z,1.15
2019-05-09T09:29:29.934Z,1.00
2019-05-09T09:31:59.847Z,1.10
2019-05-09T09:34:30.130Z,1.10
2019-05-09T09:37:04.317Z,0.95
2019-05-09T09:39:32.036Z,0.88
2019-05-09T09:42:02.006Z,0.98
2019-05-09T09:44:31.671Z,0.90
2019-05-09T09:47:01.376Z,0.90
2019-05-09T09:49:31.042Z,0.90
2019-05-09T09:52:00.782Z,1.00
2019-05-09T09:54:31.517Z,0.88
2019-05-09T09:57:01.382Z,0.90
2019-05-09T09:59:44.076Z,1.03
2019-05-09T10:02:15.451Z,1.30
2019-05-09T10:04:45.501Z,1.07
2019-05-09T10:07:15.332Z,1.00
2019-05-09T10:09:45.094Z,0.97
2019-05-09T10:12:14.909Z,1.20
2019-05-09T10:14:49.048Z,1.00
2019-05-09T10:17:38.677Z,0.90
2019-05-09T10:20:30.752Z,1.00
2019-05-09T10:23:11.041Z,1.10
2019-05-09T10:25:31.882Z,1.27
2019-05-09T10:28:01.513Z,1.37
2019-05-09T10:30:32.489Z,1.00
2019-05-09T10:33:02.323Z,1.10
2019-05-09T10:35:31.935Z,1.30
2019-05-09T10:38:01.762Z,1.40
2019-05-09T10:40:31.428Z,1.30
2019-05-09T10:43:13.949Z,1.23
2019-05-09T10:46:18.487Z,1.47
2019-05-09T10:48:52.152Z,0.83
2019-05-09T10:51:21.876Z,1.00
2019-05-09T10:53:51.607Z,1.30
2019-05-09T10:56:21.254Z,1.67
2019-05-09T10:58:51.159Z,1.40
2019-05-09T11:01:20.833Z,1.07
2019-05-09T11:03:50.494Z,1.10
2019-05-09T11:06:21.235Z,1.07
2019-05-09T11:08:51.039Z,1.30
2019-05-09T11:11:20.821Z,0.98
2019-05-09T11:13:50.521Z,1.27
2019-05-09T11:16:20.485Z,1.57
2019-05-09T11:18:50.159Z,1.30
2019-05-09T11:21:20.987Z,1.10
2019-05-09T11:23:50.728Z,0.80
2019-05-09T11:26:20.358Z,0.80
2019-05-09T11:28:50.109Z,1.10
2019-05-09T11:31:20.207Z,1.00
2019-05-09T11:33:50.059Z,0.97
2019-05-09T11:36:21.181Z,1.10
2019-05-09T11:38:51.295Z,1.00
2019-05-09T11:41:21.182Z,0.90
2019-05-09T11:43:51.088Z,1.00
2019-05-09T11:46:20.936Z,1.00
2019-05-09T11:48:50.720Z,0.78
2019-05-09T11:51:22.755Z,0.90
2019-05-09T11:53:52.012Z,1.10
2019-05-09T11:56:21.773Z,0.90
2019-05-09T11:58:51.568Z,0.70
2019-05-09T12:01:21.290Z,0.60
2019-05-09T12:03:52.464Z,0.83
2019-05-09T12:06:23.341Z,0.60
2019-05-09T12:08:53.196Z,0.40
2019-05-09T12:11:22.998Z,0.68
2019-05-09T12:13:52.846Z,1.00
2019-05-09T12:16:22.652Z,0.50
2019-05-09T12:18:52.512Z,0.87
2019-05-09T12:21:22.449Z,0.70
2019-05-09T12:23:52.301Z,0.70
2019-05-09T12:26:22.056Z,0.57
2019-05-09T12:28:51.908Z,0.53
2019-05-09T12:31:21.669Z,0.50
2019-05-09T12:33:51.538Z,0.30
2019-05-09T12:36:21.622Z,0.60
2019-05-09T12:38:51.331Z,0.40
2019-05-09T12:41:21.084Z,0.50
2019-05-09T12:43:50.773Z,0.50
2019-05-09T12:46:21.600Z,0.47
2019-05-09T12:48:51.389Z,0.40
2019-05-09T12:51:21.177Z,0.50
2019-05-09T12:53:50.829Z,0.50
2019-05-09T12:56:20.721Z,0.50
2019-05-09T12:58:52.389Z,0.40
2019-05-09T13:01:22.144Z,0.50
2019-05-09T13:03:51.948Z,0.20
2019-05-09T13:06:21.717Z,0.30
2019-05-09T13:08:51.471Z,0.50
2019-05-09T13:11:21.222Z,0.40
2019-05-09T13:13:50.838Z,0.50
2019-05-09T13:16:49.555Z,0.50
2019-05-09T13:19:18.556Z,0.45
2019-05-09T13:21:48.463Z,0.50
2019-05-09T13:24:19.492Z,0.28
2019-05-09T13:26:51.183Z,0.63
2019-05-09T13:29:22.007Z,0.50
2019-05-09T13:31:51.803Z,0.30
2019-05-09T13:34:21.581Z,0.47
2019-05-09T13:36:51.317Z,0.50
2019-05-09T13:39:21.139Z,0.50
2019-05-09T13:41:50.837Z,0.30
2019-05-09T13:44:20.493Z,0.30
2019-05-09T13:46:50.393Z,0.40
2019-05-09T13:49:20.027Z,0.40
2019-05-09T13:51:58.154Z,0.60
2019-05-09T13:54:21.034Z,0.40
2019-05-09T13:56:57.602Z,0.40
2019-05-09T13:59:22.093Z,0.33
2019-05-09T14:01:52.646Z,0.40
2019-05-09T14:04:22.417Z,0.40
2019-05-09T14:06:52.983Z,0.35
2019-05-09T14:09:22.676Z,0.30
2019-05-09T14:11:52.315Z,0.35
2019-05-09T14:14:22.401Z,0.67
2019-05-09T14:16:52.339Z,0.70
2019-05-09T14:19:31.306Z,0.40
2019-05-09T14:21:53.508Z,0.63
2019-05-09T14:24:23.315Z,0.40
2019-05-09T14:26:54.182Z,0.27
2019-05-09T14:29:23.924Z,0.50
2019-05-09T14:31:53.711Z,0.40
2019-05-09T14:34:23.442Z,0.40
2019-05-09T14:36:53.213Z,0.70
2019-05-09T14:39:23.064Z,0.60
2019-05-09T14:41:53.002Z,0.40
2019-05-09T14:44:23.073Z,0.50
2019-05-09T14:46:52.909Z,0.30
2019-05-09T14:49:22.586Z,0.40
2019-05-09T14:51:52.353Z,0.40
2019-05-09T14:54:24.462Z,1.23
2019-05-09T14:56:54.473Z,0.40
2019-05-09T14:59:24.297Z,0.37
2019-05-09T15:01:53.998Z,0.42
2019-05-09T15:04:23.927Z,0.50
2019-05-09T15:06:53.839Z,0.60
2019-05-09T15:09:23.625Z,0.43
2019-05-09T15:11:53.570Z,0.30
2019-05-09T15:14:23.322Z,0.40
2019-05-09T15:16:53.119Z,0.60
2019-05-09T15:19:23.885Z,0.50
2019-05-09T15:21:56.800Z,0.50
2019-05-09T15:24:28.724Z,0.53
2019-05-09T15:26:59.670Z,0.60
2019-05-09T15:29:29.827Z,0.60
2019-05-09T15:32:05.351Z,0.60
2019-05-09T15:34:31.159Z,0.40
2019-05-09T15:37:01.010Z,0.87
2019-05-09T15:39:30.740Z,0.70
2019-05-09T15:42:00.506Z,0.50
2019-05-09T15:44:30.546Z,0.40
2019-05-09T15:47:08.916Z,0.60
2019-05-09T15:49:39.693Z,0.70
2019-05-09T15:52:10.171Z,0.80
2019-05-09T15:54:39.963Z,0.87
2019-05-09T15:57:10.758Z,1.50
2019-05-09T15:59:40.879Z,0.77
2019-05-09T16:02:10.613Z,0.80
2019-05-09T16:04:40.544Z,0.60
2019-05-09T16:07:11.245Z,0.90
2019-05-09T16:09:41.160Z,0.97
2019-05-09T16:12:10.956Z,1.00
2019-05-09T16:14:43.325Z,0.67
2019-05-09T16:17:13.241Z,0.73
2019-05-09T16:19:43.855Z,1.45
2019-05-09T16:22:18.972Z,0.70
2019-05-09T16:24:48.957Z,1.10
2019-05-09T16:27:18.656Z,1.20
2019-05-09T16:29:48.714Z,1.17
2019-05-09T16:32:19.614Z,1.00
2019-05-09T16:34:49.345Z,0.90
2019-05-09T16:37:19.159Z,1.17
2019-05-09T16:39:49.120Z,1.50
2019-05-09T16:42:18.938Z,1.52
2019-05-09T16:44:48.604Z,1.40
2019-05-09T16:47:21.603Z,1.03
2019-05-09T16:49:50.027Z,1.13
2019-05-09T16:52:19.836Z,1.03
2019-05-09T16:54:51.741Z,1.10
2019-05-09T16:57:22.087Z,1.30
2019-05-09T16:59:52.872Z,1.37
2019-05-09T17:02:25.058Z,1.40
2019-05-09T17:04:54.074Z,1.40
2019-05-09T17:07:23.834Z,1.40
2019-05-09T17:09:53.556Z,2.02
2019-05-09T17:12:23.304Z,3.27
2019-05-09T17:14:53.127Z,3.03
2019-05-09T17:17:23.076Z,3.13
2019-05-09T17:19:52.758Z,2.70
2019-05-09T17:22:41.499Z,2.20
2019-05-09T17:25:11.411Z,2.47
2019-05-09T17:27:41.081Z,1.73
2019-05-09T17:30:10.910Z,2.22
2019-05-09T17:32:40.840Z,2.50
2019-05-09T17:35:10.768Z,3.30
2019-05-09T17:37:40.548Z,3.07
2019-05-09T17:40:10.313Z,3.70
2019-05-09T17:42:40.068Z,2.37
2019-05-09T17:45:09.932Z,2.47
2019-05-09T17:47:39.678Z,2.50
2019-05-09T17:50:10.122Z,2.98
2019-05-09T17:52:39.975Z,7.93
2019-05-09T17:55:10.064Z,2.33
2019-05-09T17:57:39.927Z,2.60
2019-05-09T18:00:11.185Z,1.83
2019-05-09T18:02:40.892Z,2.00
2019-05-09T18:05:10.768Z,2.07
2019-05-09T18:07:40.872Z,1.60
2019-05-09T18:10:11.592Z,1.90
2019-05-09T18:12:41.411Z,1.40
2019-05-09T18:15:11.470Z,1.60
2019-05-09T18:17:41.365Z,2.00
2019-05-09T18:20:11.357Z,1.20
2019-05-09T18:22:40.953Z,1.45
2019-05-09T18:25:10.892Z,1.37
2019-05-09T18:27:40.728Z,1.22
2019-05-09T18:30:10.688Z,1.17
2019-05-09T18:32:49.898Z,1.10
2019-05-09T18:35:21.511Z,1.20
2019-05-09T18:37:51.375Z,1.25
2019-05-09T18:40:21.216Z,1.20
2019-05-09T18:42:50.932Z,1.23
2019-05-09T18:45:21.088Z,1.13
2019-05-09T18:47:51.820Z,1.12
2019-05-09T18:50:21.639Z,1.30
2019-05-09T18:52:51.345Z,1.20
2019-05-09T18:55:21.836Z,1.65
2019-05-09T18:57:51.625Z,1.20
2019-05-09T19:00:22.194Z,1.27
2019-05-09T19:02:52.119Z,1.60
2019-05-09T19:05:22.147Z,1.50
2019-05-09T19:07:52.240Z,1.40
2019-05-09T19:10:22.023Z,1.42
2019-05-09T19:12:51.689Z,1.90
2019-05-09T19:15:30.664Z,1.05
2019-05-09T19:18:09.890Z,1.13
2019-05-09T19:20:44.937Z,1.42
2019-05-09T19:23:14.840Z,1.63
2019-05-09T19:25:44.654Z,1.75
2019-05-09T19:28:14.459Z,2.60
2019-05-09T19:30:44.528Z,2.00
2019-05-09T19:33:14.517Z,2.00
2019-05-09T19:35:45.324Z,2.00
2019-05-09T19:38:15.314Z,1.77
2019-05-09T19:40:45.190Z,2.27
2019-05-09T19:43:15.008Z,2.50
2019-05-09T19:45:46.718Z,2.22
2019-05-09T19:48:16.636Z,2.70
2019-05-09T19:50:47.118Z,2.72
2019-05-09T19:53:16.942Z,2.90
2019-05-09T19:55:46.728Z,3.30
2019-05-09T19:58:16.707Z,3.02
2019-05-09T20:00:46.508Z,3.27
2019-05-09T20:03:16.396Z,3.10
2019-05-09T20:05:46.151Z,2.23
2019-05-09T20:08:16.038Z,1.80
2019-05-09T20:11:11.843Z,3.17
2019-05-09T20:14:18.687Z,3.13
2019-05-09T20:16:50.994Z,4.00
2019-05-09T20:19:20.961Z,3.80
2019-05-09T20:21:50.793Z,3.73
2019-05-09T20:24:20.618Z,3.83
2019-05-09T20:26:50.494Z,4.17
2019-05-09T20:29:20.975Z,4.03
2019-05-09T20:31:50.948Z,3.90
2019-05-09T20:34:20.769Z,4.03
2019-05-09T20:36:50.603Z,3.90
2019-05-09T20:39:20.578Z,4.23
2019-05-09T20:41:50.492Z,3.50
2019-05-09T20:44:21.463Z,3.27
2019-05-09T20:46:51.471Z,3.75
2019-05-09T20:49:21.406Z,3.50
2019-05-09T20:51:51.333Z,4.33
2019-05-09T20:54:21.718Z,3.43
2019-05-09T20:56:51.831Z,3.93
2019-05-09T20:59:21.851Z,3.60
2019-05-09T21:01:51.881Z,4.03
2019-05-09T21:04:21.757Z,3.60
2019-05-09T21:06:51.998Z,3.43
2019-05-09T21:09:21.878Z,4.90
2019-05-09T21:11:51.755Z,3.83
2019-05-09T21:14:24.507Z,3.17
2019-05-09T21:16:54.646Z,3.60
2019-05-09T21:19:25.802Z,3.53
2019-05-09T21:21:55.957Z,3.67
2019-05-09T21:24:26.031Z,3.77
2019-05-09T21:26:56.703Z,3.80
2019-05-09T21:29:28.881Z,3.37
2019-05-09T21:31:59.063Z,3.43
2019-05-09T21:34:31.240Z,3.37
2019-05-09T21:37:01.456Z,3.10
2019-05-09T21:39:31.591Z,3.42
2019-05-09T21:42:04.046Z,3.60
2019-05-09T21:44:34.270Z,4.20
2019-05-09T21:47:04.763Z,3.67
2019-05-09T21:49:34.487Z,3.72
2019-05-09T21:52:04.526Z,4.07
2019-05-09T21:54:34.782Z,4.27
2019-05-09T21:57:04.808Z,4.20
2019-05-09T21:59:34.889Z,4.27
2019-05-09T22:02:05.407Z,4.90
2019-05-09T22:04:36.000Z,4.53
2019-05-09T22:07:06.177Z,5.00
2019-05-09T22:09:36.023Z,5.40
2019-05-09T22:12:06.228Z,5.87
2019-05-09T22:14:36.297Z,6.20
2019-05-09T22:17:13.938Z,6.13
2019-05-09T22:19:44.181Z,6.07
2019-05-09T22:22:14.246Z,6.22
2019-05-09T22:24:47.145Z,6.77
2019-05-09T22:27:17.205Z,7.33
2019-05-09T22:29:47.225Z,6.63
2019-05-09T22:32:22.273Z,7.17
2019-05-09T22:34:52.313Z,7.37
2019-05-09T22:37:22.206Z,7.45
2019-05-09T22:39:52.376Z,8.20
2019-05-09T22:42:23.229Z,7.65
2019-05-09T22:47:42.980Z,9.07
2019-05-09T22:50:15.107Z,7.60
2019-05-09T22:52:44.556Z,8.35
2019-05-09T22:55:14.476Z,7.80
2019-05-09T22:57:44.333Z,8.33
2019-05-09T23:00:14.771Z,8.80
2019-05-09T23:02:44.971Z,9.18
2019-05-09T23:05:14.922Z,9.50
2019-05-09T23:07:44.750Z,9.37
2019-05-09T23:10:14.551Z,9.50
2019-05-09T23:12:45.190Z,10.23
2019-05-09T23:15:16.555Z,9.23
2019-05-09T23:17:46.942Z,8.77
2019-05-09T23:20:34.595Z,9.23
2019-05-09T23:23:22.317Z,8.70
2019-05-09T23:25:53.094Z,9.70
2019-05-09T23:28:23.374Z,9.03
2019-05-09T23:30:55.308Z,9.50
2019-05-09T23:33:26.398Z,9.00
2019-05-09T23:35:57.067Z,9.20
2019-05-09T23:38:26.842Z,9.30
2019-05-09T23:40:56.631Z,9.40
2019-05-09T23:43:26.539Z,9.43
2019-05-09T23:45:56.406Z,10.13
2019-05-09T23:48:26.091Z,8.73
2019-05-09T23:51:05.133Z,9.23
2019-05-09T23:53:37.486Z,8.37
2019-05-09T23:56:25.062Z,8.73
2019-05-09T23:59:13.354Z,8.53
